Bright Ocean — HOGQ — position and weather

sailwx.info

Track history (hours):
 
Tides and Currents Weather Stations Pressure Air Temp Water Temp Dewpoint Dewpoint Depression Visibility Wind Speed Wind Dir Waves Ship Positions

Bright Ocean

Last reported at 2015-Mar-29 10:32 UTC. Time now 2015-Mar-29 10:43 UTC.
Position N 37°46' W 122°20'.

Length 178 m; draft 6.7 m.

Type: Cargo ship. MMSI: 373816000.

Date/timePositionNaut miles runAvg speedWind from/ knotsBaromVisibWave heightAir tempDewpointWater temp
2015-Mar-29 10:32N 37°46' W 122°20'0 0.1
2015-Mar-29 09:32N 37°46' W 122°20'0 0.0
2015-Mar-29 08:32N 37°46' W 122°20'0 0.0
2015-Mar-29 07:29N 37°46' W 122°20'0 0.0
2015-Mar-29 06:32N 37°46' W 122°20'0 0.0
2015-Mar-29 05:32N 37°46' W 122°20'0 0.2
2015-Mar-29 04:32N 37°46' W 122°20'0 0.1
2015-Mar-29 03:32N 37°45' W 122°20'0 0.0
2015-Mar-29 02:32N 37°45' W 122°20'0 0.0
2015-Mar-29 01:32N 37°45' W 122°20'0 0.0
2015-Mar-29 00:32N 37°45' W 122°20'0 0.0
2015-Mar-28 23:32N 37°45' W 122°20'0 0.0
2015-Mar-28 22:32N 37°45' W 122°20'0 0.2
2015-Mar-28 21:32N 37°46' W 122°20'0 0.0
2015-Mar-28 20:32N 37°46' W 122°20'0 0.0
2015-Mar-28 19:32N 37°46' W 122°20'0 0.0
2015-Mar-28 18:32N 37°46' W 122°20'0 0.0
2015-Mar-28 17:32N 37°46' W 122°20'0 0.0
2015-Mar-28 16:32N 37°46' W 122°20'0 0.0
2015-Mar-28 15:29N 37°46' W 122°20'0 0.1
2015-Mar-28 14:33N 37°45' W 122°20'0 0.1
2015-Mar-28 13:32N 37°45' W 122°20'0 0.0
2015-Mar-28 12:32N 37°45' W 122°20'0 0.0
2015-Mar-28 11:32N 37°45' W 122°20'0 0.0
2015-Mar-28 10:32N 37°45' W 122°20'0 0.2
2015-Mar-28 09:32N 37°46' W 122°20'0 0.1
2015-Mar-28 08:32N 37°46' W 122°20'0 0.0
2015-Mar-28 07:32N 37°46' W 122°20'0 0.0
2015-Mar-28 06:32N 37°46' W 122°20'0 0.0
2015-Mar-28 05:32N 37°46' W 122°20'0 0.1
2015-Mar-28 04:32N 37°46' W 122°20'0 0.1
2015-Mar-28 03:32N 37°46' W 122°20'0 0.1
2015-Mar-28 02:32N 37°45' W 122°20'0 0.0
2015-Mar-28 01:32N 37°45' W 122°20'0 0.0
2015-Mar-28 00:29N 37°45' W 122°20'0 0.0
2015-Mar-27 23:32N 37°45' W 122°20'0 0.0
2015-Mar-27 22:32N 37°45' W 122°20'0 0.0
2015-Mar-27 21:32N 37°46' W 122°20'0 0.2
2015-Mar-27 20:29N 37°46' W 122°20'0 0.1
2015-Mar-27 19:32N 37°46' W 122°20'0 0.0
2015-Mar-27 18:32N 37°46' W 122°20'0 0.0
2015-Mar-27 17:32N 37°46' W 122°20'0 0.0
2015-Mar-27 16:29N 37°46' W 122°20'0 0.1
2015-Mar-27 15:33N 37°46' W 122°20'8 8.4
2015-Mar-27 14:33N 37°53' W 122°25'1111.0
2015-Mar-27 13:34N 38°03' W 122°20'10 9.9
2015-Mar-27 12:33N 38°02' W 122°07'10 9.5
2015-Mar-27 11:31N 38°03' W 121°55'9 9.5
2015-Mar-27 10:33N 38°02' W 121°43'8 7.8
2015-Mar-27 09:33N 38°05' W 121°34'8 7.8
2015-Mar-27 08:33N 37°60' W 121°26'5 5.5
2015-Mar-27 07:33N 37°57' W 121°20'1 1.4
2015-Mar-27 06:32N 37°58' W 121°22'0 0.0
2015-Mar-27 05:32N 37°58' W 121°22'0 0.0
2015-Mar-27 04:32N 37°58' W 121°22'0 0.0
2015-Mar-27 03:32N 37°58' W 121°22'0 0.0
2015-Mar-27 02:32N 37°58' W 121°22'0 0.0
2015-Mar-27 01:32N 37°58' W 121°22'0 0.0
2015-Mar-27 00:32N 37°58' W 121°22'0 0.0
2015-Mar-26 23:32N 37°58' W 121°22'0 0.0
2015-Mar-26 22:32N 37°58' W 121°22'0 0.0
2015-Mar-26 21:32N 37°58' W 121°22'0 0.0
2015-Mar-26 20:32N 37°58' W 121°22'3 3.4
2015-Mar-26 19:33N 37°60' W 121°25'7 6.7
2015-Mar-26 18:33N 38°03' W 121°32'2 1.5
2015-Mar-26 17:14N 38°05' W 121°34'0 0.1
2015-Mar-26 16:32N 38°05' W 121°34'3 2.4
2015-Mar-26 15:11N 38°03' W 121°30'4 5.7
2015-Mar-26 14:34N 38°01' W 121°27'5 5.3
2015-Mar-26 13:34N 37°58' W 121°22'2 1.8
2015-Mar-26 12:33N 37°57' W 121°20'0 0.0
2015-Mar-26 11:33N 37°57' W 121°20'0 0.0
2015-Mar-26 10:33N 37°57' W 121°20'0 0.0
2015-Mar-26 09:33N 37°57' W 121°20'0 0.0
2015-Mar-26 08:33N 37°57' W 121°20'0 0.0
2015-Mar-26 07:33N 37°57' W 121°20'0 0.0
2015-Mar-26 06:30N 37°57' W 121°20'0 0.0
2015-Mar-26 05:33N 37°57' W 121°20'0 0.0
2015-Mar-26 04:33N 37°57' W 121°20'0 0.0
2015-Mar-26 03:33N 37°57' W 121°20'0 0.0
2015-Mar-26 02:33N 37°57' W 121°20'0 0.0
2015-Mar-26 01:33N 37°57' W 121°20'0 0.0
2015-Mar-26 00:33N 37°57' W 121°20'0 0.0
2015-Mar-25 23:33N 37°57' W 121°20'0 0.0
2015-Mar-25 22:33N 37°57' W 121°20'0 0.0
2015-Mar-25 21:33N 37°57' W 121°20'0 0.0
2015-Mar-25 20:33N 37°57' W 121°20'0 0.0
2015-Mar-25 19:33N 37°57' W 121°20'0 0.0
2015-Mar-25 18:33N 37°57' W 121°20'0 0.0
2015-Mar-25 17:33N 37°57' W 121°20'0 0.0
2015-Mar-25 16:33N 37°57' W 121°20'0 0.0
2015-Mar-25 15:33N 37°57' W 121°20'0 0.0
2015-Mar-25 14:33N 37°57' W 121°20'0 0.0
2015-Mar-25 13:33N 37°57' W 121°20'0 0.0
2015-Mar-25 12:33N 37°57' W 121°20'0 0.0
2015-Mar-25 11:30N 37°57' W 121°20'0 0.0
2015-Mar-25 10:33N 37°57' W 121°20'0 0.0
2015-Mar-25 09:33N 37°57' W 121°20'0 0.0
2015-Mar-25 08:33N 37°57' W 121°20'0 0.0
2015-Mar-25 07:33N 37°57' W 121°20'0 0.0
2015-Mar-25 06:33N 37°57' W 121°20'0 0.0
2015-Mar-25 05:33N 37°57' W 121°20'0 0.0
2015-Mar-25 04:33N 37°57' W 121°20'0 0.0
2015-Mar-25 03:33N 37°57' W 121°20'0 0.0
2015-Mar-25 02:30N 37°57' W 121°20'0 0.0
2015-Mar-25 01:33N 37°57' W 121°20'0 0.0
2015-Mar-25 00:33N 37°57' W 121°20'0 0.0
2015-Mar-24 23:33N 37°57' W 121°20'0 0.0
2015-Mar-24 22:33N 37°57' W 121°20'0 0.0
2015-Mar-24 21:33N 37°57' W 121°20'0 0.0
2015-Mar-24 20:33N 37°57' W 121°20'0 0.0
2015-Mar-24 19:33N 37°57' W 121°20'0 0.0
2015-Mar-24 18:33N 37°57' W 121°20'0 0.0
2015-Mar-24 17:33N 37°57' W 121°20'0 0.0
2015-Mar-24 16:33N 37°57' W 121°20'0 0.0
2015-Mar-24 15:33N 37°57' W 121°20'0 0.0
2015-Mar-24 14:33N 37°57' W 121°20'0 0.0
2015-Mar-24 13:33N 37°57' W 121°20'0 0.0
2015-Mar-24 12:33N 37°57' W 121°20'0 0.0
2015-Mar-24 11:33N 37°57' W 121°20'0 0.0
2015-Mar-24 10:33N 37°57' W 121°20'0 0.0
2015-Mar-24 09:33N 37°57' W 121°20'0 0.0
2015-Mar-24 08:33N 37°57' W 121°20'0 0.0
2015-Mar-24 07:33N 37°57' W 121°20'0 0.0
2015-Mar-24 06:33N 37°57' W 121°20'0 0.0
2015-Mar-24 05:33N 37°57' W 121°20'0 0.0
2015-Mar-24 04:33N 37°57' W 121°20'0 0.0
2015-Mar-24 03:33N 37°57' W 121°20'0 0.0
2015-Mar-24 02:33N 37°57' W 121°20'0 0.0
2015-Mar-24 01:33N 37°57' W 121°20'0 0.0
2015-Mar-24 00:33N 37°57' W 121°20'0 0.0
2015-Mar-23 23:33N 37°57' W 121°20'0 0.0
2015-Mar-23 22:33N 37°57' W 121°20'0 0.0
2015-Mar-23 21:33N 37°57' W 121°20'0 0.0
2015-Mar-23 20:33N 37°57' W 121°20'0 0.0
2015-Mar-23 19:33N 37°57' W 121°20'0 0.0
2015-Mar-23 18:33N 37°57' W 121°20'0 0.0
2015-Mar-23 17:33N 37°57' W 121°20'0 0.0
2015-Mar-23 16:33N 37°57' W 121°20'0 0.0
2015-Mar-23 15:33N 37°57' W 121°20'0 0.0
2015-Mar-23 14:33N 37°57' W 121°20'0 0.0
2015-Mar-23 13:33N 37°57' W 121°20'0 0.0
2015-Mar-23 12:33N 37°57' W 121°20'0 0.0
2015-Mar-23 11:33N 37°57' W 121°20'0 0.0
2015-Mar-23 10:30N 37°57' W 121°20'0 0.0
2015-Mar-23 09:30N 37°57' W 121°20'0 0.0
2015-Mar-23 08:30N 37°57' W 121°20'0 0.0
2015-Mar-23 07:27N 37°57' W 121°20'0 0.0
2015-Mar-23 06:30N 37°57' W 121°20'0 0.0
2015-Mar-23 05:33N 37°57' W 121°20'0 0.0
2015-Mar-23 04:33N 37°57' W 121°20'0 0.0
2015-Mar-23 03:33N 37°57' W 121°20'0 0.0
2015-Mar-23 02:33N 37°57' W 121°20'0 0.0
2015-Mar-23 01:33N 37°57' W 121°20'0 0.0
2015-Mar-23 00:30N 37°57' W 121°20'0 0.0
2015-Mar-22 23:30N 37°57' W 121°20'0 0.0
2015-Mar-22 22:30N 37°57' W 121°20'0 0.0
2015-Mar-22 21:33N 37°57' W 121°20'0 0.0
2015-Mar-22 20:33N 37°57' W 121°20'0 0.0
2015-Mar-22 19:33N 37°57' W 121°20'0 0.0
2015-Mar-22 18:33N 37°57' W 121°20'0 0.0
2015-Mar-22 17:33N 37°57' W 121°20'0 0.0
2015-Mar-22 16:30N 37°57' W 121°20'0 0.0
2015-Mar-22 15:33N 37°57' W 121°20'0 0.0
2015-Mar-22 14:33N 37°57' W 121°20'0 0.0
2015-Mar-22 13:33N 37°57' W 121°20'0 0.0
2015-Mar-22 12:33N 37°57' W 121°20'0 0.0
2015-Mar-22 11:33N 37°57' W 121°20'0 0.0
2015-Mar-22 10:33N 37°57' W 121°20'0 0.0
2015-Mar-22 09:33N 37°57' W 121°20'0 0.0
2015-Mar-22 08:33N 37°57' W 121°19'0 0.0
2015-Mar-22 07:33N 37°57' W 121°20'0 0.0
2015-Mar-22 06:30N 37°57' W 121°20'0 0.0
2015-Mar-22 05:33N 37°57' W 121°20'0 0.0
2015-Mar-22 04:33N 37°57' W 121°20'0 0.0
2015-Mar-22 03:33N 37°57' W 121°20'0 0.0
2015-Mar-22 02:33N 37°57' W 121°20'0 0.0
2015-Mar-22 01:30N 37°57' W 121°20'0 0.0
2015-Mar-22 00:33N 37°57' W 121°20'0 0.0
2015-Mar-21 23:33N 37°57' W 121°20'0 0.0
2015-Mar-21 22:33N 37°57' W 121°20'0 0.0
2015-Mar-21 21:33N 37°57' W 121°20'0 0.0
2015-Mar-21 20:33N 37°57' W 121°20'0 0.0
2015-Mar-21 19:33N 37°57' W 121°20'0 0.0
2015-Mar-21 18:33N 37°57' W 121°20'0 0.0
2015-Mar-21 17:33N 37°57' W 121°20'0 0.0
2015-Mar-21 16:33N 37°57' W 121°20'0 0.0
2015-Mar-21 15:33N 37°57' W 121°20'0 0.0
2015-Mar-21 14:27N 37°57' W 121°20'0 0.0
2015-Mar-21 13:33N 37°57' W 121°20'0 0.0
2015-Mar-21 12:33N 37°57' W 121°20'0 0.0
2015-Mar-21 11:30N 37°57' W 121°20'0 0.0
2015-Mar-21 10:33N 37°57' W 121°20'0 0.0
2015-Mar-21 09:33N 37°57' W 121°20'0 0.0
2015-Mar-21 08:33N 37°57' W 121°19'0 0.0
2015-Mar-21 07:33N 37°57' W 121°20'0 0.0
2015-Mar-21 06:27N 37°57' W 121°20'0 0.0
2015-Mar-21 05:24N 37°57' W 121°20'0 0.0
2015-Mar-21 04:30N 37°57' W 121°20'0 0.0
2015-Mar-21 03:24N 37°57' W 121°20'0 0.1
2015-Mar-21 02:33N 37°57' W 121°19'4 2.7
2015-Mar-21 01:05N 37°59' W 121°24'3 5.2
2015-Mar-21 00:33N 38°00' W 121°27'6 6.1
2015-Mar-20 23:33N 38°04' W 121°33'7 6.3
2015-Mar-20 22:29N 38°02' W 121°42'9 9.3
2015-Mar-20 21:33N 38°02' W 121°53'9 9.0
2015-Mar-20 20:33N 38°03' W 122°04'7 7.5
2015-Mar-20 19:33N 38°04' W 122°14'8 8.5
2015-Mar-20 18:33N 38°01' W 122°24'1211.7
2015-Mar-20 17:33N 37°49' W 122°25'1312.7
2015-Mar-20 16:33N 37°45' W 122°40'1111.0
2015-Mar-20 15:33N 37°38' W 122°51'10 9.8
2015-Mar-20 14:33N 37°32' W 123°01'1110.8
2015-Mar-20 13:33N 37°26' W 123°12'1010.4
2015-Mar-20 12:33N 37°24' W 123°25'1312.6
2015-Mar-20 11:33N 37°24' W 123°40'1212.0
2015-Mar-20 10:33N 37°24' W 123°55'1111.3
2015-Mar-20 09:33N 37°24' W 124°10'1111.4
2015-Mar-20 08:33N 37°23' W 124°24'1111.3
2015-Mar-20 07:33N 37°23' W 124°38'1211.5
2015-Mar-20 06:33N 37°23' W 124°53'1211.9
2015-Mar-20 05:33N 37°24' W 125°08'1212.0
2015-Mar-20 04:33N 37°25' W 125°23'1211.9
2015-Mar-20 03:33N 37°26' W 125°38'1211.9
2015-Mar-20 02:33N 37°27' W 125°53'1212.1
2015-Mar-20 01:33N 37°28' W 126°08'1212.3
2015-Mar-20 00:33N 37°28' W 126°23'1212.1
2015-Mar-19 23:33N 37°30' W 126°39'1212.3
2015-Mar-19 22:33N 37°31' W 126°54'1212.6
2015-Mar-19 21:33N 37°32' W 127°10'1712.3
2015-Mar-19 20:11N 37°33' W 127°31'7 7.4
2015-Mar-19 19:14N 37°31' W 127°40'911.3
2015-Mar-19 18:25N 37°30' W 127°51'2111.4
2015-Mar-19 16:33N 37°40' W 128°15'  
Track history (hours):
 
Tides and Currents Weather Stations Pressure Air Temp Water Temp Dewpoint Dewpoint Depression Visibility Wind Speed Wind Dir Waves Ship Positions

Bright Ocean

Last reported at 2015-Mar-29 10:32 UTC. Time now 2015-Mar-29 10:43 UTC.
Position N 37°46' W 122°20'.

Length 178 m; draft 6.7 m.

Type: Cargo ship. MMSI: 373816000.

Date/timePositionNaut miles runAvg speedWind from/ knotsBaromVisibWave heightAir tempDewpointWater temp
2015-Mar-29 10:32N 37°46' W 122°20'0 0.1
2015-Mar-29 09:32N 37°46' W 122°20'0 0.0
2015-Mar-29 08:32N 37°46' W 122°20'0 0.0
2015-Mar-29 07:29N 37°46' W 122°20'0 0.0
2015-Mar-29 06:32N 37°46' W 122°20'0 0.0
2015-Mar-29 05:32N 37°46' W 122°20'0 0.2
2015-Mar-29 04:32N 37°46' W 122°20'0 0.1
2015-Mar-29 03:32N 37°45' W 122°20'0 0.0
2015-Mar-29 02:32N 37°45' W 122°20'0 0.0
2015-Mar-29 01:32N 37°45' W 122°20'0 0.0
2015-Mar-29 00:32N 37°45' W 122°20'0 0.0
2015-Mar-28 23:32N 37°45' W 122°20'0 0.0
2015-Mar-28 22:32N 37°45' W 122°20'0 0.2
2015-Mar-28 21:32N 37°46' W 122°20'0 0.0
2015-Mar-28 20:32N 37°46' W 122°20'0 0.0
2015-Mar-28 19:32N 37°46' W 122°20'0 0.0
2015-Mar-28 18:32N 37°46' W 122°20'0 0.0
2015-Mar-28 17:32N 37°46' W 122°20'0 0.0
2015-Mar-28 16:32N 37°46' W 122°20'0 0.0
2015-Mar-28 15:29N 37°46' W 122°20'0 0.1
2015-Mar-28 14:33N 37°45' W 122°20'0 0.1
2015-Mar-28 13:32N 37°45' W 122°20'0 0.0
2015-Mar-28 12:32N 37°45' W 122°20'0 0.0
2015-Mar-28 11:32N 37°45' W 122°20'0 0.0
2015-Mar-28 10:32N 37°45' W 122°20'0 0.2
2015-Mar-28 09:32N 37°46' W 122°20'0 0.1
2015-Mar-28 08:32N 37°46' W 122°20'0 0.0
2015-Mar-28 07:32N 37°46' W 122°20'0 0.0
2015-Mar-28 06:32N 37°46' W 122°20'0 0.0
2015-Mar-28 05:32N 37°46' W 122°20'0 0.1
2015-Mar-28 04:32N 37°46' W 122°20'0 0.1
2015-Mar-28 03:32N 37°46' W 122°20'0 0.1
2015-Mar-28 02:32N 37°45' W 122°20'0 0.0
2015-Mar-28 01:32N 37°45' W 122°20'0 0.0
2015-Mar-28 00:29N 37°45' W 122°20'0 0.0
2015-Mar-27 23:32N 37°45' W 122°20'0 0.0
2015-Mar-27 22:32N 37°45' W 122°20'0 0.0
2015-Mar-27 21:32N 37°46' W 122°20'0 0.2
2015-Mar-27 20:29N 37°46' W 122°20'0 0.1
2015-Mar-27 19:32N 37°46' W 122°20'0 0.0
2015-Mar-27 18:32N 37°46' W 122°20'0 0.0
2015-Mar-27 17:32N 37°46' W 122°20'0 0.0
2015-Mar-27 16:29N 37°46' W 122°20'0 0.1
2015-Mar-27 15:33N 37°46' W 122°20'8 8.4
2015-Mar-27 14:33N 37°53' W 122°25'1111.0
2015-Mar-27 13:34N 38°03' W 122°20'10 9.9
2015-Mar-27 12:33N 38°02' W 122°07'10 9.5
2015-Mar-27 11:31N 38°03' W 121°55'9 9.5
2015-Mar-27 10:33N 38°02' W 121°43'8 7.8
2015-Mar-27 09:33N 38°05' W 121°34'8 7.8
2015-Mar-27 08:33N 37°60' W 121°26'5 5.5
2015-Mar-27 07:33N 37°57' W 121°20'1 1.4
2015-Mar-27 06:32N 37°58' W 121°22'0 0.0
2015-Mar-27 05:32N 37°58' W 121°22'0 0.0
2015-Mar-27 04:32N 37°58' W 121°22'0 0.0
2015-Mar-27 03:32N 37°58' W 121°22'0 0.0
2015-Mar-27 02:32N 37°58' W 121°22'0 0.0
2015-Mar-27 01:32N 37°58' W 121°22'0 0.0
2015-Mar-27 00:32N 37°58' W 121°22'0 0.0
2015-Mar-26 23:32N 37°58' W 121°22'0 0.0
2015-Mar-26 22:32N 37°58' W 121°22'0 0.0
2015-Mar-26 21:32N 37°58' W 121°22'0 0.0
2015-Mar-26 20:32N 37°58' W 121°22'3 3.4
2015-Mar-26 19:33N 37°60' W 121°25'7 6.7
2015-Mar-26 18:33N 38°03' W 121°32'2 1.5
2015-Mar-26 17:14N 38°05' W 121°34'0 0.1
2015-Mar-26 16:32N 38°05' W 121°34'3 2.4
2015-Mar-26 15:11N 38°03' W 121°30'4 5.7
2015-Mar-26 14:34N 38°01' W 121°27'5 5.3
2015-Mar-26 13:34N 37°58' W 121°22'2 1.8
2015-Mar-26 12:33N 37°57' W 121°20'0 0.0
2015-Mar-26 11:33N 37°57' W 121°20'0 0.0
2015-Mar-26 10:33N 37°57' W 121°20'0 0.0
2015-Mar-26 09:33N 37°57' W 121°20'0 0.0
2015-Mar-26 08:33N 37°57' W 121°20'0 0.0
2015-Mar-26 07:33N 37°57' W 121°20'0 0.0
2015-Mar-26 06:30N 37°57' W 121°20'0 0.0
2015-Mar-26 05:33N 37°57' W 121°20'0 0.0
2015-Mar-26 04:33N 37°57' W 121°20'0 0.0
2015-Mar-26 03:33N 37°57' W 121°20'0 0.0
2015-Mar-26 02:33N 37°57' W 121°20'0 0.0
2015-Mar-26 01:33N 37°57' W 121°20'0 0.0
2015-Mar-26 00:33N 37°57' W 121°20'0 0.0
2015-Mar-25 23:33N 37°57' W 121°20'0 0.0
2015-Mar-25 22:33N 37°57' W 121°20'0 0.0
2015-Mar-25 21:33N 37°57' W 121°20'0 0.0
2015-Mar-25 20:33N 37°57' W 121°20'0 0.0
2015-Mar-25 19:33N 37°57' W 121°20'0 0.0
2015-Mar-25 18:33N 37°57' W 121°20'0 0.0
2015-Mar-25 17:33N 37°57' W 121°20'0 0.0
2015-Mar-25 16:33N 37°57' W 121°20'0 0.0
2015-Mar-25 15:33N 37°57' W 121°20'0 0.0
2015-Mar-25 14:33N 37°57' W 121°20'0 0.0
2015-Mar-25 13:33N 37°57' W 121°20'0 0.0
2015-Mar-25 12:33N 37°57' W 121°20'0 0.0
2015-Mar-25 11:30N 37°57' W 121°20'0 0.0
2015-Mar-25 10:33N 37°57' W 121°20'0 0.0
2015-Mar-25 09:33N 37°57' W 121°20'0 0.0
2015-Mar-25 08:33N 37°57' W 121°20'0 0.0
2015-Mar-25 07:33N 37°57' W 121°20'0 0.0
2015-Mar-25 06:33N 37°57' W 121°20'0 0.0
2015-Mar-25 05:33N 37°57' W 121°20'0 0.0
2015-Mar-25 04:33N 37°57' W 121°20'0 0.0
2015-Mar-25 03:33N 37°57' W 121°20'0 0.0
2015-Mar-25 02:30N 37°57' W 121°20'0 0.0
2015-Mar-25 01:33N 37°57' W 121°20'0 0.0
2015-Mar-25 00:33N 37°57' W 121°20'0 0.0
2015-Mar-24 23:33N 37°57' W 121°20'0 0.0
2015-Mar-24 22:33N 37°57' W 121°20'0 0.0
2015-Mar-24 21:33N 37°57' W 121°20'0 0.0
2015-Mar-24 20:33N 37°57' W 121°20'0 0.0
2015-Mar-24 19:33N 37°57' W 121°20'0 0.0
2015-Mar-24 18:33N 37°57' W 121°20'0 0.0
2015-Mar-24 17:33N 37°57' W 121°20'0 0.0
2015-Mar-24 16:33N 37°57' W 121°20'0 0.0
2015-Mar-24 15:33N 37°57' W 121°20'0 0.0
2015-Mar-24 14:33N 37°57' W 121°20'0 0.0
2015-Mar-24 13:33N 37°57' W 121°20'0 0.0
2015-Mar-24 12:33N 37°57' W 121°20'0 0.0
2015-Mar-24 11:33N 37°57' W 121°20'0 0.0
2015-Mar-24 10:33N 37°57' W 121°20'0 0.0
2015-Mar-24 09:33N 37°57' W 121°20'0 0.0
2015-Mar-24 08:33N 37°57' W 121°20'0 0.0
2015-Mar-24 07:33N 37°57' W 121°20'0 0.0
2015-Mar-24 06:33N 37°57' W 121°20'0 0.0
2015-Mar-24 05:33N 37°57' W 121°20'0 0.0
2015-Mar-24 04:33N 37°57' W 121°20'0 0.0
2015-Mar-24 03:33N 37°57' W 121°20'0 0.0
2015-Mar-24 02:33N 37°57' W 121°20'0 0.0
2015-Mar-24 01:33N 37°57' W 121°20'0 0.0
2015-Mar-24 00:33N 37°57' W 121°20'0 0.0
2015-Mar-23 23:33N 37°57' W 121°20'0 0.0
2015-Mar-23 22:33N 37°57' W 121°20'0 0.0
2015-Mar-23 21:33N 37°57' W 121°20'0 0.0
2015-Mar-23 20:33N 37°57' W 121°20'0 0.0
2015-Mar-23 19:33N 37°57' W 121°20'0 0.0
2015-Mar-23 18:33N 37°57' W 121°20'0 0.0
2015-Mar-23 17:33N 37°57' W 121°20'0 0.0
2015-Mar-23 16:33N 37°57' W 121°20'0 0.0
2015-Mar-23 15:33N 37°57' W 121°20'0 0.0
2015-Mar-23 14:33N 37°57' W 121°20'0 0.0
2015-Mar-23 13:33N 37°57' W 121°20'0 0.0
2015-Mar-23 12:33N 37°57' W 121°20'0 0.0
2015-Mar-23 11:33N 37°57' W 121°20'0 0.0
2015-Mar-23 10:30N 37°57' W 121°20'0 0.0
2015-Mar-23 09:30N 37°57' W 121°20'0 0.0
2015-Mar-23 08:30N 37°57' W 121°20'0 0.0
2015-Mar-23 07:27N 37°57' W 121°20'0 0.0
2015-Mar-23 06:30N 37°57' W 121°20'0 0.0
2015-Mar-23 05:33N 37°57' W 121°20'0 0.0
2015-Mar-23 04:33N 37°57' W 121°20'0 0.0
2015-Mar-23 03:33N 37°57' W 121°20'0 0.0
2015-Mar-23 02:33N 37°57' W 121°20'0 0.0
2015-Mar-23 01:33N 37°57' W 121°20'0 0.0
2015-Mar-23 00:30N 37°57' W 121°20'0 0.0
2015-Mar-22 23:30N 37°57' W 121°20'0 0.0
2015-Mar-22 22:30N 37°57' W 121°20'0 0.0
2015-Mar-22 21:33N 37°57' W 121°20'0 0.0
2015-Mar-22 20:33N 37°57' W 121°20'0 0.0
2015-Mar-22 19:33N 37°57' W 121°20'0 0.0
2015-Mar-22 18:33N 37°57' W 121°20'0 0.0
2015-Mar-22 17:33N 37°57' W 121°20'0 0.0
2015-Mar-22 16:30N 37°57' W 121°20'0 0.0
2015-Mar-22 15:33N 37°57' W 121°20'0 0.0
2015-Mar-22 14:33N 37°57' W 121°20'0 0.0
2015-Mar-22 13:33N 37°57' W 121°20'0 0.0
2015-Mar-22 12:33N 37°57' W 121°20'0 0.0
2015-Mar-22 11:33N 37°57' W 121°20'0 0.0
2015-Mar-22 10:33N 37°57' W 121°20'0 0.0
2015-Mar-22 09:33N 37°57' W 121°20'0 0.0
2015-Mar-22 08:33N 37°57' W 121°19'0 0.0
2015-Mar-22 07:33N 37°57' W 121°20'0 0.0
2015-Mar-22 06:30N 37°57' W 121°20'0 0.0
2015-Mar-22 05:33N 37°57' W 121°20'0 0.0
2015-Mar-22 04:33N 37°57' W 121°20'0 0.0
2015-Mar-22 03:33N 37°57' W 121°20'0 0.0
2015-Mar-22 02:33N 37°57' W 121°20'0 0.0
2015-Mar-22 01:30N 37°57' W 121°20'0 0.0
2015-Mar-22 00:33N 37°57' W 121°20'0 0.0
2015-Mar-21 23:33N 37°57' W 121°20'0 0.0
2015-Mar-21 22:33N 37°57' W 121°20'0 0.0
2015-Mar-21 21:33N 37°57' W 121°20'0 0.0
2015-Mar-21 20:33N 37°57' W 121°20'0 0.0
2015-Mar-21 19:33N 37°57' W 121°20'0 0.0
2015-Mar-21 18:33N 37°57' W 121°20'0 0.0
2015-Mar-21 17:33N 37°57' W 121°20'0 0.0
2015-Mar-21 16:33N 37°57' W 121°20'0 0.0
2015-Mar-21 15:33N 37°57' W 121°20'0 0.0
2015-Mar-21 14:27N 37°57' W 121°20'0 0.0
2015-Mar-21 13:33N 37°57' W 121°20'0 0.0
2015-Mar-21 12:33N 37°57' W 121°20'0 0.0
2015-Mar-21 11:30N 37°57' W 121°20'0 0.0
2015-Mar-21 10:33N 37°57' W 121°20'0 0.0
2015-Mar-21 09:33N 37°57' W 121°20'0 0.0
2015-Mar-21 08:33N 37°57' W 121°19'0 0.0
2015-Mar-21 07:33N 37°57' W 121°20'0 0.0
2015-Mar-21 06:27N 37°57' W 121°20'0 0.0
2015-Mar-21 05:24N 37°57' W 121°20'0 0.0
2015-Mar-21 04:30N 37°57' W 121°20'0 0.0
2015-Mar-21 03:24N 37°57' W 121°20'0 0.1
2015-Mar-21 02:33N 37°57' W 121°19'4 2.7
2015-Mar-21 01:05N 37°59' W 121°24'3 5.2
2015-Mar-21 00:33N 38°00' W 121°27'6 6.1
2015-Mar-20 23:33N 38°04' W 121°33'7 6.3
2015-Mar-20 22:29N 38°02' W 121°42'9 9.3
2015-Mar-20 21:33N 38°02' W 121°53'9 9.0
2015-Mar-20 20:33N 38°03' W 122°04'7 7.5
2015-Mar-20 19:33N 38°04' W 122°14'8 8.5
2015-Mar-20 18:33N 38°01' W 122°24'1211.7
2015-Mar-20 17:33N 37°49' W 122°25'1312.7
2015-Mar-20 16:33N 37°45' W 122°40'1111.0
2015-Mar-20 15:33N 37°38' W 122°51'10 9.8
2015-Mar-20 14:33N 37°32' W 123°01'1110.8
2015-Mar-20 13:33N 37°26' W 123°12'1010.4
2015-Mar-20 12:33N 37°24' W 123°25'1312.6
2015-Mar-20 11:33N 37°24' W 123°40'1212.0
2015-Mar-20 10:33N 37°24' W 123°55'1111.3
2015-Mar-20 09:33N 37°24' W 124°10'1111.4
2015-Mar-20 08:33N 37°23' W 124°24'1111.3
2015-Mar-20 07:33N 37°23' W 124°38'1211.5
2015-Mar-20 06:33N 37°23' W 124°53'1211.9
2015-Mar-20 05:33N 37°24' W 125°08'1212.0
2015-Mar-20 04:33N 37°25' W 125°23'1211.9
2015-Mar-20 03:33N 37°26' W 125°38'1211.9
2015-Mar-20 02:33N 37°27' W 125°53'1212.1
2015-Mar-20 01:33N 37°28' W 126°08'1212.3
2015-Mar-20 00:33N 37°28' W 126°23'1212.1
2015-Mar-19 23:33N 37°30' W 126°39'1212.3
2015-Mar-19 22:33N 37°31' W 126°54'1212.6
2015-Mar-19 21:33N 37°32' W 127°10'1712.3
2015-Mar-19 20:11N 37°33' W 127°31'7 7.4
2015-Mar-19 19:14N 37°31' W 127°40'911.3
2015-Mar-19 18:25N 37°30' W 127°51'2111.4
2015-Mar-19 16:33N 37°40' W 128°15'  

Dump ship's entire track history